Time;durP1;ratioP1;P1;durP2;ratioP2;P2;SDS_P1;SDS_P2;PMS_P1;PMS_P2;Temp;Humidity;BMP_temperature;BMP_pressure;BME280_temperature;BME280_humidity;BME280_pressure;Samples;Min_cycle;Max_cycle;Signal;HPM_P1;HPM_P2
2022/01/21 00:01:20;;;;;;;7.90;4.40;;;1.90;99.90;;;;;;5071054;28;20325;-86
2022/01/21 00:03:46;;;;;;;8.87;5.10;;;1.80;99.90;;;;;;5093066;28;20242;-86
2022/01/21 00:06:12;;;;;;;8.03;4.53;;;1.80;99.90;;;;;;5092741;28;20210;-86
2022/01/21 00:08:40;;;;;;;13.07;5.43;;;1.70;99.90;;;;;;5084169;28;20196;-86
2022/01/21 00:11:07;;;;;;;9.97;4.87;;;1.80;99.90;;;;;;5057539;28;20186;-86
2022/01/21 00:13:36;;;;;;;8.93;5.00;;;1.80;99.90;;;;;;5073304;28;20214;-86
2022/01/21 00:16:23;;;;;;;7.77;4.73;;;1.80;99.90;;;;;;5091438;28;20913;-86
2022/01/21 00:19:02;;;;;;;11.37;5.83;;;1.90;99.90;;;;;;5081751;28;20214;-86
2022/01/21 00:32:26;;;;;;;8.23;4.60;;;1.90;99.90;;;;;;5085777;28;20230;-86
2022/01/21 00:34:52;;;;;;;9.60;4.53;;;1.80;99.90;;;;;;5056408;28;20178;-86
2022/01/21 00:37:18;;;;;;;7.33;4.53;;;1.80;99.90;;;;;;5090466;28;20181;-86
2022/01/21 00:39:50;;;;;;;8.40;4.93;;;1.90;99.90;;;;;;5072125;28;20569;-86
2022/01/21 00:44:48;;;;;;;10.63;4.63;;;1.80;99.90;;;;;;5074547;28;20235;-86
2022/01/21 00:47:13;;;;;;;7.33;5.10;;;1.90;99.90;;;;;;5091326;28;20190;-86
2022/01/21 00:49:39;;;;;;;7.43;4.93;;;1.90;99.90;;;;;;5090471;28;20214;-86
2022/01/21 00:52:05;;;;;;;7.00;4.30;;;1.90;99.90;;;;;;5091709;28;20198;-86
2022/01/21 00:54:30;;;;;;;8.60;5.00;;;1.90;99.90;;;;;;5053094;28;20176;-86
2022/01/21 00:56:56;;;;;;;8.10;4.20;;;1.90;99.90;;;;;;5078969;28;20605;-86
2022/01/21 00:59:22;;;;;;;7.60;4.63;;;1.90;99.90;;;;;;5071474;28;20240;-86
2022/01/21 01:01:48;;;;;;;8.27;4.47;;;1.90;99.90;;;;;;5083262;28;20175;-86
2022/01/21 01:04:13;;;;;;;7.33;4.53;;;1.90;99.40;;;;;;5085466;28;20190;-86
2022/01/21 01:06:39;;;;;;;7.57;3.97;;;1.70;99.90;;;;;;5089193;28;20274;-86
2022/01/21 01:09:05;;;;;;;7.37;4.27;;;1.70;99.90;;;;;;5084780;28;20207;-86
2022/01/21 01:22:23;;;;;;;11.00;5.07;;;1.70;99.90;;;;;;5088549;28;20197;-86
2022/01/21 01:27:39;;;;;;;7.23;4.77;;;1.40;99.90;;;;;;5072290;28;20853;-86
2022/01/21 01:30:07;;;;;;;7.10;4.40;;;1.20;99.90;;;;;;5086395;28;20199;-86
2022/01/21 01:32:34;;;;;;;9.13;4.77;;;1.40;99.90;;;;;;5083954;28;20207;-86
2022/01/21 01:35:00;;;;;;;6.13;4.30;;;1.50;99.90;;;;;;5088338;28;20178;-86
2022/01/21 01:40:32;;;;;;;6.27;4.17;;;1.50;99.90;;;;;;5045146;28;20227;-86
2022/01/21 01:50:54;;;;;;;6.70;4.50;;;1.80;99.90;;;;;;5073766;28;20272;-86
2022/01/21 01:53:34;;;;;;;9.23;4.27;;;1.70;99.90;;;;;;5079172;28;20206;-86
2022/01/21 01:56:01;;;;;;;9.17;4.33;;;1.70;99.90;;;;;;5077736;28;20179;-86
2022/01/21 01:58:26;;;;;;;8.57;4.07;;;1.70;99.90;;;;;;5091805;28;20198;-86
2022/01/21 02:00:56;;;;;;;6.77;4.03;;;1.70;99.90;;;;;;5087475;28;20641;-86
2022/01/21 02:03:22;;;;;;;6.10;4.30;;;1.70;99.90;;;;;;5093680;28;20250;-86
2022/01/21 02:05:48;;;;;;;5.03;4.03;;;1.80;99.90;;;;;;5095107;28;20272;-86
2022/01/21 02:08:13;;;;;;;4.70;3.80;;;1.90;99.90;;;;;;5094153;28;20232;-86
2022/01/21 02:10:40;;;;;;;6.27;4.30;;;1.80;99.90;;;;;;5096766;28;20709;-86
2022/01/21 02:13:19;;;;;;;5.83;4.00;;;1.70;99.90;;;;;;5096661;28;20202;-86
2022/01/21 02:15:56;;;;;;;7.10;4.13;;;1.80;99.90;;;;;;5096629;28;20157;-86
2022/01/21 02:24:10;;;;;;;10.63;4.40;;;1.50;99.90;;;;;;5090372;28;20264;-86
2022/01/21 02:26:37;;;;;;;6.87;4.60;;;1.60;99.90;;;;;;5098392;28;20162;-86
2022/01/21 02:29:05;;;;;;;6.43;4.20;;;1.60;99.90;;;;;;5070760;28;20206;-86
2022/01/21 02:31:31;;;;;;;9.57;5.17;;;1.60;99.90;;;;;;5095716;28;20182;-86
2022/01/21 02:33:57;;;;;;;7.07;4.43;;;1.50;99.90;;;;;;5059495;28;20226;-86
2022/01/21 02:36:23;;;;;;;5.97;4.00;;;1.60;99.90;;;;;;5084308;28;20188;-86
2022/01/21 02:38:49;;;;;;;7.87;4.13;;;1.70;99.90;;;;;;5079865;28;20206;-86
2022/01/21 02:41:15;;;;;;;7.97;4.00;;;1.80;99.90;;;;;;5077464;28;20171;-86
2022/01/21 02:43:41;;;;;;;6.93;4.10;;;1.80;99.90;;;;;;5095624;28;20594;-86
2022/01/21 02:46:09;;;;;;;7.97;3.70;;;1.80;99.90;;;;;;5066094;28;20241;-86
2022/01/21 02:48:37;;;;;;;5.07;3.87;;;1.80;99.90;;;;;;5089993;28;20170;-86
2022/01/21 02:51:06;;;;;;;7.57;4.00;;;1.80;99.90;;;;;;5114079;28;20178;-86
2022/01/21 02:56:16;;;;;;;7.83;4.33;;;1.90;99.90;;;;;;5095643;28;20163;-86
2022/01/21 02:58:43;;;;;;;6.77;3.87;;;1.80;99.90;;;;;;5095178;28;20206;-86
2022/01/21 03:01:09;;;;;;;8.17;4.57;;;1.80;99.90;;;;;;5077267;28;20207;-86
2022/01/21 03:03:35;;;;;;;7.50;4.93;;;1.80;99.90;;;;;;5084885;28;20215;-86
2022/01/21 03:06:01;;;;;;;7.10;4.60;;;1.70;99.90;;;;;;5080951;28;20195;-86
2022/01/21 03:08:28;;;;;;;8.87;4.57;;;1.60;99.90;;;;;;5094242;28;20235;-86
2022/01/21 03:10:54;;;;;;;5.07;3.70;;;1.40;99.90;;;;;;5084032;28;20179;-86
2022/01/21 03:13:22;;;;;;;7.23;3.97;;;1.40;99.90;;;;;;5088246;28;20214;-86
2022/01/21 03:15:51;;;;;;;6.10;3.80;;;1.40;99.90;;;;;;5083842;28;20191;-86
2022/01/21 03:18:17;;;;;;;10.27;4.37;;;1.40;99.90;;;;;;5083894;28;20175;-86
2022/01/21 03:20:44;;;;;;;7.60;4.33;;;1.30;99.90;;;;;;5093550;28;20667;-86
2022/01/21 03:23:15;;;;;;;8.30;4.50;;;1.30;99.90;;;;;;5070855;28;20175;-86
2022/01/21 03:25:42;;;;;;;8.47;3.97;;;1.30;99.90;;;;;;5085602;28;20169;-86
2022/01/21 03:28:08;;;;;;;6.17;4.50;;;1.30;99.90;;;;;;5101360;28;20606;-86
2022/01/21 03:30:35;;;;;;;8.13;4.00;;;1.40;99.90;;;;;;5102851;28;20214;-86
2022/01/21 03:33:00;;;;;;;7.27;4.20;;;1.50;99.90;;;;;;5102776;28;20209;-86
2022/01/21 03:35:26;;;;;;;8.77;4.67;;;1.40;99.90;;;;;;5095938;28;20183;-86
2022/01/21 03:37:52;;;;;;;7.07;4.80;;;1.50;99.90;;;;;;5100458;28;20229;-86
2022/01/21 03:40:18;;;;;;;4.93;4.30;;;1.40;99.90;;;;;;5082029;28;20218;-86
2022/01/21 03:42:43;;;;;;;7.13;4.23;;;1.40;99.90;;;;;;5082535;28;20740;-86
2022/01/21 03:45:11;;;;;;;5.23;4.07;;;1.40;99.90;;;;;;5090734;28;20202;-86
2022/01/21 03:47:37;;;;;;;7.03;4.00;;;1.40;99.90;;;;;;5100930;28;20603;-86
2022/01/21 03:52:45;;;;;;;6.07;4.03;;;1.30;99.90;;;;;;5088967;28;20211;-86
2022/01/21 03:55:11;;;;;;;6.80;4.10;;;1.20;99.90;;;;;;5084275;28;20186;-86
2022/01/21 03:57:37;;;;;;;5.77;4.03;;;1.30;99.90;;;;;;5099676;28;20257;-87
2022/01/21 04:00:06;;;;;;;6.37;4.63;;;1.30;99.90;;;;;;5100291;28;20211;-86
2022/01/21 04:02:31;;;;;;;7.13;4.13;;;1.30;99.90;;;;;;5098509;28;20187;-86
2022/01/21 04:04:57;;;;;;;6.40;4.00;;;1.20;99.90;;;;;;5081739;28;20631;-86
2022/01/21 04:07:23;;;;;;;7.87;3.80;;;1.20;99.90;;;;;;5082893;28;20616;-86
2022/01/21 04:09:48;;;;;;;8.63;4.10;;;1.10;99.90;;;;;;5099454;28;20242;-86
2022/01/21 04:12:14;;;;;;;7.27;4.20;;;1.20;99.90;;;;;;5087791;28;20187;-87
2022/01/21 04:14:41;;;;;;;6.43;4.30;;;1.20;99.90;;;;;;5088237;28;20198;-86
2022/01/21 04:17:07;;;;;;;6.57;4.10;;;1.20;99.90;;;;;;5087665;28;20241;-86
2022/01/21 04:19:33;;;;;;;6.07;3.67;;;1.30;99.90;;;;;;5084770;28;20207;-86
2022/01/21 04:21:59;;;;;;;7.73;4.17;;;1.40;99.90;;;;;;5099252;28;20246;-86
2022/01/21 04:24:25;;;;;;;5.97;3.77;;;1.40;99.90;;;;;;5090937;28;20236;-87
2022/01/21 04:26:51;;;;;;;10.13;4.43;;;1.40;99.90;;;;;;5096660;28;20206;-86
2022/01/21 04:29:17;;;;;;;6.73;4.53;;;1.40;99.90;;;;;;5098430;28;20203;-87
2022/01/21 04:31:43;;;;;;;10.00;4.37;;;1.40;99.90;;;;;;5067138;28;20317;-86
2022/01/21 04:34:08;;;;;;;8.03;4.43;;;1.30;99.90;;;;;;5060861;28;20200;-87
2022/01/21 04:36:35;;;;;;;8.27;4.40;;;1.30;99.90;;;;;;5081317;28;20622;-87
2022/01/21 04:39:03;;;;;;;7.90;3.80;;;1.20;99.90;;;;;;5097482;28;20211;-87
2022/01/21 04:47:12;;;;;;;6.80;3.80;;;1.20;99.90;;;;;;5099082;28;20240;-87
2022/01/21 04:47:19;;;;;;;7.40;3.60;;;1.30;99.90;;;;;;5078992;28;20696;-86
2022/01/21 04:49:46;;;;;;;6.63;5.17;;;1.30;99.90;;;;;;5098349;28;20214;-87
2022/01/21 04:52:12;;;;;;;6.33;4.20;;;1.20;99.90;;;;;;5099646;28;20186;-86
2022/01/21 04:54:38;;;;;;;8.20;4.30;;;1.30;99.90;;;;;;5097885;28;20279;-86
2022/01/21 04:57:05;;;;;;;9.00;4.67;;;1.20;99.90;;;;;;5080522;28;20618;-87
2022/01/21 04:59:31;;;;;;;7.03;4.20;;;1.20;99.90;;;;;;5068298;28;20273;-87
2022/01/21 05:01:57;;;;;;;6.23;4.30;;;1.20;99.90;;;;;;5088289;28;20175;-86
2022/01/21 05:04:22;;;;;;;10.20;4.43;;;1.20;99.90;;;;;;5083032;28;20187;-86
2022/01/21 05:06:51;;;;;;;6.47;4.20;;;1.10;99.90;;;;;;5096945;28;20251;-86
2022/01/21 05:09:17;;;;;;;9.37;4.37;;;1.10;99.90;;;;;;5074771;28;20222;-86
2022/01/21 05:11:45;;;;;;;9.53;4.63;;;1.20;99.90;;;;;;5061152;28;20187;-86
2022/01/21 05:14:46;;;;;;;12.27;6.63;;;1.20;99.90;;;;;;5080186;28;20226;-86
2022/01/21 05:17:05;;;;;;;9.20;5.93;;;1.10;99.90;;;;;;5087114;28;20180;-86
2022/01/21 05:19:30;;;;;;;9.07;5.13;;;1.10;99.90;;;;;;5086626;28;20202;-86
2022/01/21 05:21:56;;;;;;;8.73;4.93;;;1.00;99.90;;;;;;5100980;28;20186;-86
2022/01/21 05:24:22;;;;;;;11.03;5.17;;;1.10;99.90;;;;;;5076345;28;20194;-87
2022/01/21 05:26:54;;;;;;;7.63;4.73;;;1.10;99.90;;;;;;5090143;28;20194;-87
2022/01/21 05:29:31;;;;;;;7.83;5.13;;;1.10;99.90;;;;;;5085671;28;20290;-87
2022/01/21 05:31:57;;;;;;;11.27;5.33;;;1.00;99.90;;;;;;5085069;28;20167;-86
2022/01/21 05:34:23;;;;;;;6.70;5.17;;;1.00;99.90;;;;;;5088002;28;20237;-86
2022/01/21 05:36:49;;;;;;;7.03;4.70;;;1.00;99.90;;;;;;5077212;28;20646;-86
2022/01/21 05:39:17;;;;;;;10.10;5.57;;;1.00;99.90;;;;;;5097067;28;20230;-86
2022/01/21 05:41:49;;;;;;;8.93;4.47;;;1.00;99.90;;;;;;5093115;28;20266;-87
2022/01/21 05:46:23;;;;;;;7.70;4.20;;;1.00;99.90;;;;;;5093534;28;20195;-86
2022/01/21 05:47:07;;;;;;;8.53;4.00;;;1.00;99.90;;;;;;5100448;28;20191;-86
2022/01/21 05:49:35;;;;;;;7.80;4.10;;;1.00;99.90;;;;;;5081953;28;20724;-86
2022/01/21 05:52:17;;;;;;;6.03;4.63;;;1.10;99.90;;;;;;5092658;28;20221;-86
2022/01/21 05:54:44;;;;;;;9.50;4.73;;;1.00;99.90;;;;;;5073314;28;20206;-86
2022/01/21 05:57:13;;;;;;;9.90;4.87;;;1.10;99.90;;;;;;5083536;28;20183;-86
2022/01/21 05:59:39;;;;;;;6.83;4.67;;;1.00;99.90;;;;;;5101500;28;20210;-87
2022/01/21 06:02:06;;;;;;;9.07;4.97;;;1.00;99.90;;;;;;5099202;28;20203;-87
2022/01/21 06:04:37;;;;;;;6.70;4.03;;;0.90;99.90;;;;;;5097779;28;20194;-86
2022/01/21 06:07:05;;;;;;;4.90;4.50;;;0.90;99.90;;;;;;5100098;28;20206;-86
2022/01/21 06:09:31;;;;;;;8.60;4.87;;;0.90;99.90;;;;;;5075538;28;20322;-86
2022/01/21 06:11:57;;;;;;;6.63;4.47;;;0.90;99.90;;;;;;5090687;28;20339;-86
2022/01/21 06:14:25;;;;;;;10.07;5.67;;;0.90;99.90;;;;;;5064878;28;20411;-86
2022/01/21 06:16:51;;;;;;;7.23;5.70;;;0.90;99.90;;;;;;5089884;28;20194;-87
2022/01/21 06:19:17;;;;;;;12.27;6.57;;;0.80;99.90;;;;;;5096673;28;20202;-87
2022/01/21 06:21:43;;;;;;;8.30;5.77;;;0.80;99.90;;;;;;5092446;28;20180;-86
2022/01/21 06:24:08;;;;;;;8.87;5.83;;;0.70;99.90;;;;;;5102091;28;20187;-86
2022/01/21 06:26:35;;;;;;;8.53;5.30;;;0.80;99.90;;;;;;5096267;28;20199;-87
2022/01/21 06:29:02;;;;;;;11.60;4.90;;;0.60;99.90;;;;;;5102120;28;20237;-86
2022/01/21 06:31:27;;;;;;;10.00;5.23;;;0.50;99.90;;;;;;5104903;28;20219;-86
2022/01/21 06:33:54;;;;;;;6.97;5.00;;;0.40;99.90;;;;;;5068471;28;20227;-86
2022/01/21 06:36:20;;;;;;;6.13;4.97;;;0.40;99.90;;;;;;5102695;28;20183;-88
2022/01/21 06:38:46;;;;;;;8.13;6.90;;;0.50;99.90;;;;;;5092263;28;20245;-87
2022/01/21 06:41:12;;;;;;;10.47;5.37;;;0.50;99.90;;;;;;5109476;28;20258;-86
2022/01/21 06:43:38;;;;;;;10.93;5.80;;;0.60;99.90;;;;;;5080171;28;20179;-86
2022/01/21 06:46:04;;;;;;;7.43;5.07;;;0.60;99.90;;;;;;5107955;28;20199;-86
2022/01/21 06:48:30;;;;;;;9.03;5.30;;;0.60;99.90;;;;;;5113494;28;20205;-86
2022/01/21 06:50:55;;;;;;;6.97;5.37;;;0.50;99.90;;;;;;5100421;28;20278;-86
2022/01/21 06:53:21;;;;;;;8.83;4.87;;;0.50;99.90;;;;;;5125257;28;20215;-85
2022/01/21 06:55:47;;;;;;;9.60;5.00;;;0.60;99.90;;;;;;5104860;28;20186;-85
2022/01/21 06:58:13;;;;;;;7.93;4.30;;;0.60;99.90;;;;;;5096067;28;20187;-85
2022/01/21 07:00:39;;;;;;;6.57;4.67;;;0.60;99.90;;;;;;5104522;28;20198;-85
2022/01/21 07:03:05;;;;;;;5.53;4.70;;;0.70;99.90;;;;;;5122976;28;20191;-86
2022/01/21 07:05:30;;;;;;;8.13;4.77;;;0.80;99.90;;;;;;5115187;28;20257;-85
2022/01/21 07:07:58;;;;;;;7.57;5.20;;;0.90;99.90;;;;;;5104749;28;20329;-85
2022/01/21 07:10:25;;;;;;;9.27;5.57;;;0.90;99.90;;;;;;5120444;28;20266;-85
2022/01/21 07:12:51;;;;;;;9.43;5.53;;;1.00;99.90;;;;;;5117330;28;20201;-85
2022/01/21 07:15:19;;;;;;;8.20;5.53;;;1.00;99.90;;;;;;5084964;28;20191;-85
2022/01/21 07:17:46;;;;;;;7.87;4.67;;;1.10;99.90;;;;;;5122775;28;20183;-85
2022/01/21 07:20:12;;;;;;;8.80;4.77;;;1.10;99.90;;;;;;5112148;28;20199;-86
2022/01/21 07:22:39;;;;;;;9.93;5.30;;;0.90;99.90;;;;;;5110662;28;20194;-86
2022/01/21 07:25:06;;;;;;;7.33;4.77;;;1.00;99.90;;;;;;5100473;28;20199;-86
2022/01/21 07:27:32;;;;;;;8.00;5.00;;;1.00;99.90;;;;;;5111008;28;20221;-86
2022/01/21 07:29:58;;;;;;;6.43;4.70;;;1.00;99.90;;;;;;5101911;28;20207;-86
2022/01/21 07:32:24;;;;;;;7.17;4.43;;;0.90;99.90;;;;;;5092645;28;20237;-85
2022/01/21 07:34:50;;;;;;;7.00;4.90;;;0.90;99.90;;;;;;5071566;28;20197;-86
2022/01/21 07:37:15;;;;;;;8.13;5.00;;;0.80;99.90;;;;;;5070938;28;20284;-86
2022/01/21 07:39:41;;;;;;;10.53;5.60;;;0.90;99.90;;;;;;5069202;28;20218;-86
2022/01/21 07:42:07;;;;;;;9.00;5.07;;;1.00;99.90;;;;;;5103692;28;20182;-85
2022/01/21 07:44:33;;;;;;;10.70;5.40;;;1.00;99.90;;;;;;5094350;28;20210;-85
2022/01/21 07:46:59;;;;;;;8.23;5.33;;;1.10;99.90;;;;;;5095082;28;20271;-86
2022/01/21 07:49:25;;;;;;;8.13;5.40;;;1.10;99.90;;;;;;5070475;28;20249;-85
2022/01/21 07:51:51;;;;;;;9.47;5.53;;;1.00;99.90;;;;;;5107575;28;20194;-86
2022/01/21 07:54:17;;;;;;;9.87;5.47;;;1.10;99.90;;;;;;5104325;28;20238;-86
2022/01/21 07:56:43;;;;;;;7.17;5.27;;;1.00;99.90;;;;;;5105846;28;20217;-86
2022/01/21 07:59:12;;;;;;;7.47;4.90;;;1.00;99.90;;;;;;5108160;28;20238;-86
2022/01/21 08:01:38;;;;;;;6.67;4.37;;;1.00;99.90;;;;;;5086358;28;20230;-86
2022/01/21 08:04:04;;;;;;;7.30;5.47;;;1.00;99.90;;;;;;5107014;28;20315;-86
2022/01/21 08:06:30;;;;;;;6.10;4.63;;;1.10;99.90;;;;;;5088828;28;20182;-86
2022/01/21 08:08:57;;;;;;;7.60;5.33;;;1.20;99.90;;;;;;5102360;28;20218;-85
2022/01/21 08:11:23;;;;;;;7.10;4.50;;;1.20;99.90;;;;;;5085912;28;20874;-85
2022/01/21 08:13:49;;;;;;;7.43;5.60;;;1.20;99.90;;;;;;5110890;28;20215;-86
2022/01/21 08:16:16;;;;;;;9.33;4.87;;;1.20;99.90;;;;;;5100423;28;20208;-86
2022/01/21 08:18:41;;;;;;;11.97;5.83;;;1.10;99.90;;;;;;5101531;28;20194;-86
2022/01/21 08:21:07;;;;;;;8.80;5.87;;;1.00;99.90;;;;;;5103562;28;20191;-86
2022/01/21 08:23:33;;;;;;;11.20;6.63;;;0.80;99.90;;;;;;5108676;28;20274;-86
2022/01/21 08:25:59;;;;;;;10.63;7.43;;;0.60;99.90;;;;;;5091353;28;20247;-86
2022/01/21 08:28:25;;;;;;;11.57;6.63;;;0.50;99.90;;;;;;5107629;28;20190;-85
2022/01/21 08:30:51;;;;;;;10.17;6.00;;;0.50;99.90;;;;;;5091389;28;20220;-85
2022/01/21 08:33:17;;;;;;;10.03;5.90;;;0.70;99.90;;;;;;5100622;28;20242;-86
2022/01/21 08:35:43;;;;;;;8.73;5.80;;;0.80;99.90;;;;;;5101722;28;20201;-85
2022/01/21 08:38:08;;;;;;;9.23;5.30;;;0.90;99.90;;;;;;5107351;28;20202;-86
2022/01/21 08:40:34;;;;;;;8.83;5.40;;;1.00;99.90;;;;;;5113847;28;20222;-85
2022/01/21 08:43:00;;;;;;;7.57;4.67;;;1.10;99.90;;;;;;5089461;28;20247;-85
2022/01/21 08:45:26;;;;;;;7.13;5.50;;;1.00;99.90;;;;;;5110540;28;20183;-85
2022/01/21 08:47:52;;;;;;;9.43;5.73;;;0.90;99.90;;;;;;5103804;28;20206;-86
2022/01/21 08:50:20;;;;;;;11.80;5.47;;;0.80;99.90;;;;;;5095272;28;20223;-85
2022/01/21 08:52:47;;;;;;;6.87;4.77;;;0.90;99.90;;;;;;5103137;28;20225;-85
2022/01/21 08:55:18;;;;;;;9.90;5.40;;;0.90;99.90;;;;;;5099728;28;20182;-86
2022/01/21 08:57:46;;;;;;;9.00;5.87;;;0.80;99.90;;;;;;5094450;28;20226;-86
2022/01/21 09:00:19;;;;;;;15.27;6.73;;;0.70;99.90;;;;;;5102467;28;20307;-86
2022/01/21 09:02:45;;;;;;;12.00;6.13;;;0.60;99.90;;;;;;5104952;28;20234;-85
2022/01/21 09:05:11;;;;;;;10.60;6.30;;;0.60;99.90;;;;;;5085505;28;20203;-85
2022/01/21 09:07:38;;;;;;;10.63;6.20;;;0.50;99.90;;;;;;5098280;28;20191;-85
2022/01/21 09:10:06;;;;;;;13.13;6.50;;;0.50;99.90;;;;;;5098222;28;20207;-86
2022/01/21 09:12:32;;;;;;;10.60;7.13;;;0.50;99.90;;;;;;5103256;28;20190;-86
2022/01/21 09:14:58;;;;;;;13.53;6.67;;;0.50;99.90;;;;;;5097713;28;20603;-85
2022/01/21 09:17:25;;;;;;;10.77;6.63;;;0.60;99.90;;;;;;5095308;28;20244;-85
2022/01/21 09:19:51;;;;;;;11.13;6.83;;;0.60;99.90;;;;;;5110589;28;20205;-84
2022/01/21 09:22:17;;;;;;;11.93;6.67;;;0.80;99.90;;;;;;5095517;28;20190;-85
2022/01/21 09:24:42;;;;;;;11.80;7.00;;;1.10;99.90;;;;;;5100496;28;20182;-85
2022/01/21 09:27:09;;;;;;;11.17;7.07;;;1.20;99.90;;;;;;5107009;28;20661;-85
2022/01/21 09:29:36;;;;;;;10.53;6.40;;;1.20;99.90;;;;;;5104493;28;20210;-85
2022/01/21 09:32:05;;;;;;;9.27;6.10;;;1.30;99.90;;;;;;5081006;28;20225;-85
2022/01/21 09:34:31;;;;;;;10.93;6.87;;;1.10;99.90;;;;;;5100844;28;20259;-85
2022/01/21 09:36:59;;;;;;;15.53;6.63;;;0.90;99.90;;;;;;5103962;28;20218;-85
2022/01/21 09:39:26;;;;;;;9.57;6.33;;;1.10;99.90;;;;;;5097538;28;20309;-85
2022/01/21 09:41:57;;;;;;;11.67;5.83;;;1.30;99.90;;;;;;5105711;28;20668;-85
2022/01/21 09:44:23;;;;;;;10.87;6.77;;;1.40;99.90;;;;;;5104250;28;20254;-84
2022/01/21 09:46:50;;;;;;;12.90;5.90;;;1.30;99.90;;;;;;5076842;28;20214;-85
2022/01/21 09:49:26;;;;;;;11.27;6.40;;;1.20;99.90;;;;;;5095473;28;20242;-85
2022/01/21 09:51:54;;;;;;;10.97;6.07;;;1.40;99.90;;;;;;5105432;28;20186;-85
2022/01/21 09:54:24;;;;;;;10.67;6.10;;;1.40;99.90;;;;;;5101860;28;20233;-85
2022/01/21 09:56:53;;;;;;;11.67;6.40;;;1.60;99.90;;;;;;5096377;28;20196;-85
2022/01/21 09:59:21;;;;;;;9.50;6.40;;;1.70;99.90;;;;;;5105121;28;20230;-85
2022/01/21 10:01:53;;;;;;;12.87;5.67;;;1.70;99.90;;;;;;5105117;28;20273;-85
2022/01/21 10:04:24;;;;;;;6.97;5.20;;;1.80;99.90;;;;;;5098891;28;20201;-85
2022/01/21 10:06:51;;;;;;;9.77;5.60;;;1.80;99.90;;;;;;5085275;28;20190;-85
2022/01/21 10:09:21;;;;;;;8.10;5.73;;;1.80;99.90;;;;;;5102492;28;20582;-84
2022/01/21 10:11:49;;;;;;;10.83;5.70;;;1.80;99.90;;;;;;5104803;28;20250;-85
2022/01/21 10:14:20;;;;;;;10.10;5.40;;;1.80;99.90;;;;;;5102274;28;20263;-85
2022/01/21 10:16:48;;;;;;;12.40;6.30;;;1.80;99.90;;;;;;5097090;28;20182;-85
2022/01/21 10:19:25;;;;;;;11.60;5.83;;;1.90;99.90;;;;;;5101498;28;20256;-85
2022/01/21 10:22:09;;;;;;;8.93;5.90;;;1.90;99.90;;;;;;5111571;28;20218;-85
2022/01/21 10:24:37;;;;;;;14.40;6.50;;;2.00;99.90;;;;;;5104263;28;20191;-85
2022/01/21 10:27:03;;;;;;;11.37;6.97;;;1.90;99.90;;;;;;5097901;28;20198;-85
2022/01/21 10:29:38;;;;;;;11.10;6.83;;;1.60;99.90;;;;;;5107084;28;20210;-85
2022/01/21 10:32:07;;;;;;;14.93;7.03;;;1.60;99.90;;;;;;5101284;28;20214;-85
2022/01/21 10:34:44;;;;;;;12.30;6.60;;;1.60;99.90;;;;;;5092086;28;20446;-85
2022/01/21 10:37:34;;;;;;;10.90;6.93;;;1.60;99.90;;;;;;5091075;28;20190;-85
2022/01/21 10:40:05;;;;;;;12.27;5.60;;;1.90;99.90;;;;;;5104318;28;20297;-85
2022/01/21 10:42:31;;;;;;;13.40;6.53;;;2.10;99.90;;;;;;5101506;28;20191;-85
2022/01/21 10:44:58;;;;;;;14.63;6.80;;;2.20;99.90;;;;;;5100313;28;20237;-85
2022/01/21 10:47:29;;;;;;;14.47;7.27;;;2.30;99.90;;;;;;5107966;28;20178;-85
2022/01/21 10:50:06;;;;;;;10.93;6.40;;;2.30;99.90;;;;;;5100798;28;20207;-85
2022/01/21 10:52:36;;;;;;;12.17;7.13;;;2.30;99.90;;;;;;5098815;28;20292;-84
2022/01/21 10:55:03;;;;;;;10.53;6.63;;;2.40;99.90;;;;;;5112666;28;20183;-85
2022/01/21 10:57:30;;;;;;;11.27;6.23;;;2.30;99.90;;;;;;5103014;28;20194;-85
2022/01/21 11:00:03;;;;;;;16.37;6.97;;;2.10;99.90;;;;;;5097563;28;20558;-85
2022/01/21 11:02:49;;;;;;;12.47;6.47;;;2.20;99.90;;;;;;5102305;28;20200;-85
2022/01/21 11:05:31;;;;;;;17.03;6.97;;;2.20;99.90;;;;;;5110983;28;20191;-85
2022/01/21 11:08:05;;;;;;;13.90;6.50;;;2.10;99.90;;;;;;5105163;28;20190;-85
2022/01/21 11:10:37;;;;;;;11.70;5.40;;;2.30;99.90;;;;;;5101984;28;20234;-85
2022/01/21 11:13:12;;;;;;;15.77;6.23;;;2.30;99.90;;;;;;5087751;28;20701;-85
2022/01/21 11:15:42;;;;;;;9.30;5.80;;;2.30;99.90;;;;;;5107400;28;20174;-85
2022/01/21 11:18:10;;;;;;;12.67;5.77;;;2.40;99.90;;;;;;5099613;28;20245;-85
2022/01/21 11:20:40;;;;;;;9.37;4.97;;;2.70;99.90;;;;;;5095596;28;20202;-85
2022/01/21 11:23:08;;;;;;;10.00;5.20;;;2.90;98.60;;;;;;5106004;28;20292;-85
2022/01/21 11:25:46;;;;;;;10.67;5.53;;;2.90;97.90;;;;;;5087452;28;20191;-85
2022/01/21 11:28:20;;;;;;;8.20;5.13;;;2.80;97.00;;;;;;5079789;28;20545;-85
2022/01/21 11:30:48;;;;;;;8.90;5.03;;;2.90;97.30;;;;;;5097084;28;20215;-85
2022/01/21 11:33:13;;;;;;;9.07;4.80;;;3.00;96.50;;;;;;5103291;28;20320;-84
2022/01/21 11:35:39;;;;;;;11.20;4.70;;;3.00;97.20;;;;;;5101778;28;20217;-85
2022/01/21 11:38:10;;;;;;;8.43;5.00;;;3.00;97.50;;;;;;5098549;28;20183;-85
2022/01/21 11:40:37;;;;;;;10.17;5.10;;;2.90;97.80;;;;;;5098159;28;20219;-85
2022/01/21 11:43:06;;;;;;;10.37;5.17;;;3.20;96.00;;;;;;5104720;28;20183;-85
2022/01/21 11:46:03;;;;;;;10.40;5.40;;;3.40;96.30;;;;;;5098876;28;20248;-86
2022/01/21 11:50:51;;;;;;;9.93;4.87;;;3.90;95.60;;;;;;5107368;28;20242;-86
2022/01/21 11:53:46;;;;;;;8.40;5.53;;;4.10;93.80;;;;;;5102701;28;20260;-86
2022/01/21 11:56:37;;;;;;;9.83;4.50;;;4.50;89.90;;;;;;5098739;28;20229;-86
2022/01/21 11:59:07;;;;;;;9.43;5.07;;;4.60;85.50;;;;;;5073436;28;20211;-86
2022/01/21 12:01:47;;;;;;;12.00;6.70;;;4.40;88.10;;;;;;5097588;28;20213;-86
2022/01/21 12:04:15;;;;;;;16.73;11.30;;;4.50;88.80;;;;;;5092080;28;20266;-85
2022/01/21 12:06:41;;;;;;;11.13;4.17;;;4.40;87.90;;;;;;5096431;28;20186;-86
2022/01/21 12:09:09;;;;;;;11.03;4.37;;;4.20;88.20;;;;;;5096515;28;20581;-85
2022/01/21 12:11:37;;;;;;;9.93;4.20;;;3.80;88.90;;;;;;5074213;28;20248;-86
2022/01/21 12:14:29;;;;;;;11.77;4.70;;;3.70;91.90;;;;;;5089086;28;20267;-86
2022/01/21 12:17:11;;;;;;;16.37;5.37;;;3.80;90.20;;;;;;5077779;28;20207;-85
2022/01/21 12:19:40;;;;;;;11.47;3.77;;;3.90;90.90;;;;;;5087459;28;20290;-86
2022/01/21 12:22:15;;;;;;;6.57;4.00;;;3.90;89.30;;;;;;5090242;28;20925;-86
2022/01/21 12:24:48;;;;;;;11.00;4.53;;;3.90;89.80;;;;;;5089708;28;20502;-86
2022/01/21 12:27:14;;;;;;;8.20;4.20;;;3.80;91.10;;;;;;5072766;28;20195;-85
2022/01/21 12:29:41;;;;;;;10.10;4.10;;;3.80;90.10;;;;;;5087579;28;20218;-85
2022/01/21 12:32:19;;;;;;;11.20;4.43;;;3.80;90.10;;;;;;5068253;28;20200;-85
2022/01/21 12:35:11;;;;;;;10.23;4.73;;;4.00;88.30;;;;;;5072621;28;20211;-85
2022/01/21 12:37:50;;;;;;;9.43;4.40;;;3.90;89.70;;;;;;5085499;28;20198;-86
2022/01/21 12:40:32;;;;;;;10.90;3.97;;;3.70;91.50;;;;;;5068326;28;20966;-86
2022/01/21 12:42:58;;;;;;;8.50;4.83;;;3.60;92.80;;;;;;5067618;28;20225;-86
2022/01/21 12:45:24;;;;;;;9.03;4.40;;;3.90;91.10;;;;;;5087062;28;20215;-85
2022/01/21 12:47:50;;;;;;;11.33;4.73;;;3.80;91.80;;;;;;5088713;28;20183;-86
2022/01/21 12:52:54;;;;;;;7.83;4.27;;;3.70;92.10;;;;;;5090846;28;20253;-86
2022/01/21 12:55:55;;;;;;;7.90;4.50;;;3.60;94.40;;;;;;5089304;28;20187;-85
2022/01/21 12:58:39;;;;;;;8.77;4.33;;;3.60;95.50;;;;;;5094276;28;20649;-85
2022/01/21 13:01:11;;;;;;;11.17;4.33;;;3.80;92.10;;;;;;5073068;28;20584;-85
2022/01/21 13:03:55;;;;;;;9.87;4.57;;;3.90;88.80;;;;;;5068496;28;20207;-86
2022/01/21 13:06:41;;;;;;;12.13;4.90;;;3.90;90.60;;;;;;5085706;28;20198;-85
2022/01/21 13:09:12;;;;;;;5.03;3.93;;;3.70;90.40;;;;;;5081859;28;20293;-86
2022/01/21 13:11:41;;;;;;;10.97;4.13;;;3.90;90.10;;;;;;5082573;28;20237;-86
2022/01/21 13:14:34;;;;;;;9.50;4.07;;;3.80;90.10;;;;;;5068757;28;20286;-86
2022/01/21 13:17:05;;;;;;;7.60;4.70;;;3.90;90.00;;;;;;5083436;28;20189;-85
2022/01/21 13:19:44;;;;;;;11.83;4.20;;;3.70;91.70;;;;;;5084069;28;20206;-85
2022/01/21 13:22:23;;;;;;;8.40;4.33;;;3.90;91.50;;;;;;5068980;28;20248;-85
2022/01/21 13:24:57;;;;;;;7.83;4.67;;;3.80;92.30;;;;;;5066650;28;20191;-84
2022/01/21 13:27:23;;;;;;;12.27;4.57;;;3.90;90.40;;;;;;5085853;28;20199;-85
2022/01/21 13:29:51;;;;;;;9.47;4.90;;;3.80;91.90;;;;;;5087455;28;20690;-84
2022/01/21 13:32:22;;;;;;;6.80;3.90;;;4.00;90.10;;;;;;5068440;28;20606;-85
2022/01/21 13:34:48;;;;;;;14.57;7.13;;;4.30;88.60;;;;;;5085721;28;20249;-85
2022/01/21 13:37:18;;;;;;;9.03;4.00;;;4.40;89.50;;;;;;5068860;28;20556;-86
2022/01/21 13:39:47;;;;;;;7.13;4.00;;;4.80;86.30;;;;;;5088197;28;20946;-84
2022/01/21 13:42:20;;;;;;;7.97;3.50;;;4.80;83.20;;;;;;5087505;28;20190;-84
2022/01/21 13:44:52;;;;;;;10.03;4.13;;;4.70;85.10;;;;;;5072501;28;20217;-85
2022/01/21 13:47:39;;;;;;;9.43;3.63;;;4.60;85.80;;;;;;5097445;28;20197;-87
2022/01/21 13:50:22;;;;;;;8.57;3.87;;;4.50;86.30;;;;;;5077096;28;20210;-86
2022/01/21 13:52:48;;;;;;;10.93;3.70;;;4.40;87.90;;;;;;5094981;28;20194;-86
2022/01/21 13:55:42;;;;;;;10.73;4.17;;;4.20;88.40;;;;;;5106998;28;20215;-86
2022/01/21 13:58:16;;;;;;;8.93;4.70;;;4.10;88.10;;;;;;5105310;28;20182;-87
2022/01/21 14:00:50;;;;;;;9.27;4.23;;;3.90;89.40;;;;;;5095032;28;20214;-86